createdAt,value
2019-03-30T00:00:38.188Z,8.60
2019-03-30T00:03:08.865Z,8.60
2019-03-30T00:05:39.382Z,8.40
2019-03-30T00:08:09.886Z,8.40
2019-03-30T00:10:40.407Z,8.10
2019-03-30T00:13:10.898Z,8.20
2019-03-30T00:15:41.351Z,8.10
2019-03-30T00:18:11.886Z,8.10
2019-03-30T00:20:42.311Z,8.00
2019-03-30T00:23:12.862Z,7.90
2019-03-30T00:25:43.854Z,7.80
2019-03-30T00:28:14.380Z,8.00
2019-03-30T00:30:44.842Z,8.00
2019-03-30T00:33:15.415Z,8.00
2019-03-30T00:35:45.894Z,8.20
2019-03-30T00:38:16.561Z,8.10
2019-03-30T00:40:47.115Z,8.20
2019-03-30T00:43:17.616Z,8.00
2019-03-30T00:45:48.215Z,8.00
2019-03-30T00:48:18.775Z,8.00
2019-03-30T00:50:49.426Z,8.10
2019-03-30T00:53:19.895Z,8.10
2019-03-30T00:55:50.379Z,8.10
2019-03-30T00:58:20.981Z,7.90
2019-03-30T01:00:51.582Z,7.90
2019-03-30T01:03:22.189Z,7.90
2019-03-30T01:05:52.614Z,7.80
2019-03-30T01:08:23.628Z,7.80
2019-03-30T01:10:54.190Z,7.90
2019-03-30T01:13:24.753Z,7.90
2019-03-30T01:15:55.496Z,7.90
2019-03-30T01:18:26.000Z,7.90
2019-03-30T01:20:56.457Z,7.90
2019-03-30T01:23:26.990Z,7.80
2019-03-30T01:25:57.478Z,7.80
2019-03-30T01:28:28.057Z,7.70
2019-03-30T01:30:58.530Z,7.70
2019-03-30T01:33:29.117Z,7.70
2019-03-30T01:35:59.595Z,7.70
2019-03-30T01:38:30.073Z,7.50
2019-03-30T01:41:00.702Z,7.60
2019-03-30T01:43:31.282Z,7.60
2019-03-30T01:46:01.835Z,7.60
2019-03-30T01:48:32.371Z,7.30
2019-03-30T01:51:02.895Z,7.20
2019-03-30T01:53:33.434Z,7.40
2019-03-30T01:56:03.986Z,7.50
2019-03-30T01:58:34.494Z,7.30
2019-03-30T02:01:05.034Z,7.20
2019-03-30T02:03:35.662Z,7.20
2019-03-30T02:06:06.213Z,7.20
2019-03-30T02:08:36.715Z,7.30
2019-03-30T02:11:07.248Z,7.30
2019-03-30T02:13:37.738Z,7.40
2019-03-30T02:16:08.360Z,7.40
2019-03-30T02:18:38.931Z,7.20
2019-03-30T02:21:09.378Z,7.30
2019-03-30T02:23:39.001Z,7.30
2019-03-30T02:26:09.554Z,7.30
2019-03-30T02:28:40.082Z,7.30
2019-03-30T02:31:10.598Z,7.30
2019-03-30T02:33:41.139Z,7.20
2019-03-30T02:36:11.764Z,7.20
2019-03-30T02:38:41.415Z,7.10
2019-03-30T02:41:11.874Z,7.20
2019-03-30T02:43:42.323Z,7.20
2019-03-30T02:46:12.916Z,7.20
2019-03-30T02:48:43.519Z,7.00
2019-03-30T02:51:14.169Z,7.00
2019-03-30T02:53:44.608Z,6.90
2019-03-30T02:56:15.283Z,6.90
2019-03-30T02:58:45.784Z,6.80
2019-03-30T03:01:16.413Z,6.90
2019-03-30T03:03:46.926Z,6.90
2019-03-30T03:06:17.564Z,6.90
2019-03-30T03:08:48.059Z,6.80
2019-03-30T03:11:18.621Z,6.90
2019-03-30T03:13:49.099Z,6.80
2019-03-30T03:16:19.658Z,6.70
2019-03-30T03:18:50.275Z,6.60
2019-03-30T03:21:20.836Z,6.70
2019-03-30T03:23:51.411Z,6.70
2019-03-30T03:26:21.991Z,6.70
2019-03-30T03:28:52.590Z,6.70
2019-03-30T03:31:23.148Z,6.80
2019-03-30T03:33:53.661Z,6.70
2019-03-30T03:36:24.130Z,6.60
2019-03-30T03:38:54.584Z,6.40
2019-03-30T03:41:25.083Z,6.30
2019-03-30T03:43:55.554Z,6.30
2019-03-30T03:46:26.146Z,6.20
2019-03-30T03:48:56.648Z,6.20
2019-03-30T03:51:27.224Z,6.30
2019-03-30T03:53:57.867Z,6.30
2019-03-30T03:56:28.396Z,6.20
2019-03-30T03:58:58.872Z,6.20
2019-03-30T04:01:29.414Z,6.20
2019-03-30T04:03:59.988Z,6.20
2019-03-30T04:06:30.616Z,6.00
2019-03-30T04:09:01.955Z,6.10
2019-03-30T04:11:33.028Z,6.10
2019-03-30T04:14:03.592Z,6.30
2019-03-30T04:16:34.100Z,6.20
2019-03-30T04:19:04.683Z,6.10
2019-03-30T04:21:43.624Z,6.00
2019-03-30T04:24:07.438Z,6.00
2019-03-30T04:26:37.976Z,6.10
2019-03-30T04:29:08.419Z,6.10
2019-03-30T04:31:38.973Z,6.20
2019-03-30T04:34:09.514Z,6.00
2019-03-30T04:36:39.167Z,6.10
2019-03-30T04:39:09.670Z,6.10
2019-03-30T04:41:40.314Z,6.20
2019-03-30T04:44:10.799Z,6.30
2019-03-30T04:46:41.264Z,6.10
2019-03-30T04:49:11.738Z,6.10
2019-03-30T04:51:42.236Z,6.10
2019-03-30T04:54:12.690Z,6.10
2019-03-30T04:56:43.299Z,6.10
2019-03-30T04:59:13.756Z,6.10
2019-03-30T05:01:44.247Z,5.90
2019-03-30T05:04:14.696Z,5.80
2019-03-30T05:06:45.185Z,5.70
2019-03-30T05:09:15.717Z,5.70
2019-03-30T05:11:46.277Z,5.90
2019-03-30T05:14:16.846Z,5.90
2019-03-30T05:16:47.345Z,5.80
2019-03-30T05:19:18.247Z,5.70
2019-03-30T05:21:48.913Z,5.70
2019-03-30T05:26:48.900Z,5.90
2019-03-30T05:29:19.323Z,5.90
2019-03-30T05:31:49.862Z,6.00
2019-03-30T05:34:20.375Z,6.10
2019-03-30T05:36:50.854Z,6.40
2019-03-30T05:39:21.336Z,6.70
2019-03-30T05:41:52.170Z,7.00
2019-03-30T05:44:28.693Z,7.50
2019-03-30T05:47:01.603Z,7.90
2019-03-30T05:49:32.168Z,8.00
2019-03-30T05:52:05.221Z,8.20
2019-03-30T05:54:35.974Z,8.60
2019-03-30T05:57:06.602Z,9.00
2019-03-30T05:59:37.162Z,9.50
2019-03-30T06:02:07.904Z,10.00
2019-03-30T06:04:38.394Z,10.60
2019-03-30T06:07:08.859Z,11.10
2019-03-30T06:09:39.441Z,11.70
2019-03-30T06:12:09.980Z,12.10
2019-03-30T06:14:41.087Z,12.60
2019-03-30T06:17:12.370Z,13.30
2019-03-30T06:19:44.433Z,13.70
2019-03-30T06:22:14.988Z,13.10
2019-03-30T06:24:45.470Z,13.80
2019-03-30T06:27:16.045Z,14.50
2019-03-30T06:30:07.315Z,14.70
2019-03-30T06:32:37.920Z,14.90
2019-03-30T06:35:08.484Z,15.10
2019-03-30T06:37:41.144Z,14.80
2019-03-30T06:40:11.649Z,15.60
2019-03-30T06:42:42.347Z,15.40
2019-03-30T06:45:13.078Z,15.50
2019-03-30T06:47:43.542Z,14.40
2019-03-30T06:50:14.117Z,13.00
2019-03-30T06:52:56.826Z,12.70
2019-03-30T06:55:16.901Z,12.40
2019-03-30T06:57:47.537Z,12.80
2019-03-30T07:00:19.748Z,13.20
2019-03-30T07:02:50.194Z,13.20
2019-03-30T07:05:20.733Z,14.00
2019-03-30T07:07:51.208Z,13.50
2019-03-30T07:10:21.755Z,13.10
2019-03-30T07:12:52.303Z,13.00
2019-03-30T07:15:22.789Z,12.70
2019-03-30T07:17:53.258Z,12.90
2019-03-30T07:20:28.293Z,13.00
2019-03-30T07:23:11.131Z,13.40
2019-03-30T07:25:31.011Z,13.80
2019-03-30T07:28:01.628Z,13.90
2019-03-30T07:30:32.252Z,14.10
2019-03-30T07:33:03.112Z,14.10
2019-03-30T07:35:33.871Z,14.00
2019-03-30T07:38:04.395Z,14.10
2019-03-30T07:40:35.284Z,14.60
2019-03-30T07:43:05.834Z,15.00
2019-03-30T07:45:36.398Z,14.40
2019-03-30T07:48:07.088Z,14.50
2019-03-30T07:53:06.268Z,14.30
2019-03-30T07:55:37.067Z,13.70
2019-03-30T07:58:07.553Z,13.90
2019-03-30T08:00:38.093Z,14.00
2019-03-30T08:03:08.584Z,14.30
2019-03-30T08:05:39.137Z,15.30
2019-03-30T08:08:09.704Z,15.40
2019-03-30T08:10:40.259Z,15.80
2019-03-30T08:13:10.821Z,15.60
2019-03-30T08:15:41.290Z,15.70
2019-03-30T08:18:12.628Z,16.30
2019-03-30T08:20:43.091Z,16.20
2019-03-30T08:23:13.622Z,16.50
2019-03-30T08:25:44.080Z,16.90
2019-03-30T08:28:14.582Z,17.90
2019-03-30T08:30:45.100Z,18.20
2019-03-30T08:33:15.733Z,17.90
2019-03-30T08:35:46.276Z,18.60
2019-03-30T08:38:16.874Z,18.30
2019-03-30T08:40:47.344Z,18.90
2019-03-30T08:43:17.858Z,20.10
2019-03-30T08:45:49.058Z,19.50
2019-03-30T08:48:19.833Z,19.50
2019-03-30T08:50:50.650Z,19.90
2019-03-30T08:53:21.318Z,19.50
2019-03-30T08:55:52.046Z,20.30
2019-03-30T08:58:22.709Z,20.60
2019-03-30T09:00:53.425Z,21.40
2019-03-30T09:03:24.307Z,22.50
2019-03-30T09:05:54.774Z,22.10
2019-03-30T09:08:25.512Z,20.70
2019-03-30T09:10:56.745Z,21.70
2019-03-30T09:13:27.361Z,22.80
2019-03-30T09:16:06.591Z,23.70
2019-03-30T09:18:37.440Z,23.50
2019-03-30T09:21:07.943Z,24.50
2019-03-30T09:23:38.449Z,23.60
2019-03-30T09:26:09.332Z,21.40
2019-03-30T09:28:39.931Z,22.60
2019-03-30T09:31:10.523Z,24.10
2019-03-30T09:33:41.096Z,24.60
2019-03-30T09:36:12.588Z,25.10
2019-03-30T09:38:43.377Z,25.00
2019-03-30T09:41:13.928Z,25.00
2019-03-30T09:43:44.653Z,24.90
2019-03-30T09:46:15.150Z,23.40
2019-03-30T09:48:46.124Z,22.20
2019-03-30T09:51:16.731Z,21.70
2019-03-30T09:53:47.377Z,21.90
2019-03-30T09:56:17.953Z,21.70
2019-03-30T09:58:48.530Z,21.50
2019-03-30T10:01:19.218Z,20.40
2019-03-30T10:03:49.747Z,20.40
2019-03-30T10:06:20.571Z,20.80
2019-03-30T10:08:51.238Z,21.80
2019-03-30T10:11:21.766Z,23.00
2019-03-30T10:13:52.463Z,23.60
2019-03-30T10:16:24.431Z,24.20
2019-03-30T10:18:55.144Z,21.80
2019-03-30T10:21:25.595Z,22.50
2019-03-30T10:23:56.198Z,22.70
2019-03-30T10:26:26.695Z,22.70
2019-03-30T10:28:57.189Z,21.90
2019-03-30T10:31:27.736Z,22.70
2019-03-30T10:33:58.326Z,22.10
2019-03-30T10:36:28.885Z,21.90
2019-03-30T10:38:59.402Z,20.90
2019-03-30T10:41:29.970Z,21.00
2019-03-30T10:44:00.476Z,20.20
2019-03-30T10:46:30.948Z,19.10
2019-03-30T10:49:01.447Z,18.80
2019-03-30T10:51:32.023Z,19.10
2019-03-30T10:54:02.670Z,18.90
2019-03-30T10:56:33.219Z,18.60
2019-03-30T10:59:03.926Z,18.30
2019-03-30T11:01:34.398Z,18.90
2019-03-30T11:04:04.934Z,19.30
2019-03-30T11:06:35.581Z,19.00
2019-03-30T11:09:06.983Z,19.00
2019-03-30T11:11:37.934Z,18.90
2019-03-30T11:14:08.516Z,18.60
2019-03-30T11:16:39.040Z,18.80
2019-03-30T11:19:09.539Z,18.70
2019-03-30T11:21:39.991Z,18.70
2019-03-30T11:24:10.560Z,18.80
2019-03-30T11:26:41.031Z,18.70
2019-03-30T11:29:11.780Z,18.80
2019-03-30T11:31:42.688Z,18.80
2019-03-30T11:34:13.195Z,18.20
2019-03-30T11:36:43.732Z,17.90
2019-03-30T11:39:17.087Z,18.20
2019-03-30T11:41:47.497Z,18.20
2019-03-30T11:44:18.621Z,18.10
2019-03-30T11:46:49.143Z,18.00
2019-03-30T11:49:19.649Z,17.80
2019-03-30T11:51:50.211Z,18.10
2019-03-30T11:54:20.858Z,17.90
2019-03-30T11:56:51.345Z,17.70
2019-03-30T11:59:21.856Z,17.80
2019-03-30T12:01:52.471Z,18.10
2019-03-30T12:04:22.975Z,18.30
2019-03-30T12:06:53.483Z,18.20
2019-03-30T12:09:24.041Z,18.20
2019-03-30T12:11:54.623Z,18.10
2019-03-30T12:14:25.194Z,18.00
2019-03-30T12:16:55.660Z,18.30
2019-03-30T12:19:26.152Z,18.10
2019-03-30T12:21:56.638Z,18.40
2019-03-30T12:24:27.163Z,17.80
2019-03-30T12:26:57.714Z,17.80
2019-03-30T12:29:28.284Z,17.80
2019-03-30T12:31:58.847Z,17.90
2019-03-30T12:34:29.374Z,18.00
2019-03-30T12:37:00.003Z,18.10
2019-03-30T12:39:30.541Z,18.70
2019-03-30T12:42:01.149Z,18.90
2019-03-30T12:44:31.948Z,19.20
2019-03-30T12:47:02.441Z,19.40
2019-03-30T12:49:33.018Z,19.60
2019-03-30T12:52:03.542Z,19.80
2019-03-30T12:54:34.053Z,20.00
2019-03-30T12:57:04.714Z,20.00
2019-03-30T12:59:35.232Z,20.10
2019-03-30T13:02:06.087Z,20.30
2019-03-30T13:04:36.587Z,20.40
2019-03-30T13:07:07.058Z,20.60
2019-03-30T13:09:37.583Z,20.50
2019-03-30T13:12:08.083Z,20.60
2019-03-30T13:14:38.567Z,20.40
2019-03-30T13:17:09.035Z,20.60
2019-03-30T13:19:39.526Z,20.60
2019-03-30T13:22:10.034Z,20.20
2019-03-30T13:24:40.547Z,20.20
2019-03-30T13:27:12.929Z,20.20
2019-03-30T13:29:43.210Z,20.40
2019-03-30T13:32:14.626Z,20.00
2019-03-30T13:34:45.103Z,20.10
2019-03-30T13:37:17.178Z,20.20
2019-03-30T13:39:47.679Z,20.10
2019-03-30T13:42:18.125Z,20.20
2019-03-30T13:44:48.702Z,19.90
2019-03-30T13:47:19.150Z,19.80
2019-03-30T13:49:49.642Z,20.10
2019-03-30T13:52:20.632Z,20.10
2019-03-30T13:54:51.191Z,20.10
2019-03-30T13:57:21.730Z,20.20
2019-03-30T13:59:52.287Z,20.20
2019-03-30T14:02:22.835Z,20.20
2019-03-30T14:07:21.912Z,20.20
2019-03-30T14:09:52.395Z,20.30
2019-03-30T14:12:22.859Z,20.50
2019-03-30T14:14:53.364Z,20.60
2019-03-30T14:17:23.819Z,20.40
2019-03-30T14:19:54.724Z,20.40
2019-03-30T14:22:25.477Z,20.50
2019-03-30T14:24:57.498Z,20.50
2019-03-30T14:27:28.004Z,20.30
2019-03-30T14:29:58.453Z,20.30
2019-03-30T14:32:29.081Z,20.30
2019-03-30T14:34:59.609Z,20.40
2019-03-30T14:37:35.803Z,20.50
2019-03-30T14:40:07.553Z,20.40
2019-03-30T14:42:38.055Z,20.10
2019-03-30T14:45:08.706Z,20.20
2019-03-30T14:47:39.263Z,20.30
2019-03-30T14:50:09.814Z,20.30
2019-03-30T14:52:40.404Z,20.20
2019-03-30T14:55:10.902Z,20.30
2019-03-30T14:57:41.378Z,20.20
2019-03-30T15:00:11.985Z,20.10
2019-03-30T15:02:42.603Z,20.10
2019-03-30T15:05:13.229Z,19.90
2019-03-30T15:07:42.912Z,20.10
2019-03-30T15:10:13.483Z,20.20
2019-03-30T15:12:43.942Z,20.10
2019-03-30T15:15:14.461Z,19.70
2019-03-30T15:17:45.039Z,19.50
2019-03-30T15:20:26.712Z,19.60
2019-03-30T15:23:00.267Z,19.50
2019-03-30T15:25:30.783Z,19.70
2019-03-30T15:28:01.254Z,19.50
2019-03-30T15:30:31.786Z,19.50
2019-03-30T15:33:03.523Z,19.70
2019-03-30T15:35:34.113Z,19.70
2019-03-30T15:38:04.570Z,19.70
2019-03-30T15:40:35.059Z,19.70
2019-03-30T15:43:05.621Z,19.70
2019-03-30T15:45:36.120Z,19.90
2019-03-30T15:48:06.579Z,19.90
2019-03-30T15:50:37.044Z,19.70
2019-03-30T15:53:07.513Z,19.60
2019-03-30T15:55:38.066Z,19.70
2019-03-30T15:58:08.613Z,19.70
2019-03-30T16:00:39.086Z,19.80
2019-03-30T16:03:09.636Z,19.80
2019-03-30T16:05:40.166Z,19.70
2019-03-30T16:08:10.655Z,19.70
2019-03-30T16:10:41.182Z,19.70
2019-03-30T16:13:14.504Z,19.70
2019-03-30T16:15:44.723Z,19.70
2019-03-30T16:18:15.304Z,19.70
2019-03-30T16:20:45.888Z,19.60
2019-03-30T16:23:16.342Z,19.70
2019-03-30T16:25:46.782Z,19.60
2019-03-30T16:28:17.402Z,19.60
2019-03-30T16:30:47.935Z,19.50
2019-03-30T16:33:18.668Z,19.50
2019-03-30T16:35:49.174Z,19.50
2019-03-30T16:38:19.662Z,19.40
2019-03-30T16:40:50.171Z,19.30
2019-03-30T16:43:20.648Z,19.20
2019-03-30T16:45:51.111Z,19.20
2019-03-30T16:48:21.711Z,19.00
2019-03-30T16:50:52.231Z,18.80
2019-03-30T16:53:22.718Z,18.60
2019-03-30T16:55:53.221Z,18.60
2019-03-30T16:58:23.702Z,18.60
2019-03-30T17:01:03.990Z,18.50
2019-03-30T17:03:38.659Z,18.40
2019-03-30T17:06:10.786Z,18.20
2019-03-30T17:08:41.262Z,18.20
2019-03-30T17:11:11.742Z,18.10
2019-03-30T17:13:42.319Z,18.10
2019-03-30T17:16:12.800Z,17.90
2019-03-30T17:18:43.352Z,17.80
2019-03-30T17:21:13.872Z,17.70
2019-03-30T17:23:44.417Z,17.50
2019-03-30T17:26:14.933Z,17.30
2019-03-30T17:28:45.390Z,17.20
2019-03-30T17:31:15.847Z,17.30
2019-03-30T17:33:46.436Z,17.30
2019-03-30T17:36:16.927Z,17.20
2019-03-30T17:38:47.787Z,17.20
2019-03-30T17:41:18.274Z,17.00
2019-03-30T17:43:48.767Z,17.10
2019-03-30T17:46:19.387Z,17.00
2019-03-30T17:48:49.948Z,16.90
2019-03-30T17:51:21.237Z,16.90
2019-03-30T17:53:51.720Z,16.90
2019-03-30T17:56:22.183Z,16.80
2019-03-30T17:58:52.683Z,16.80
2019-03-30T18:01:23.222Z,16.60
2019-03-30T18:03:53.778Z,16.50
2019-03-30T18:06:24.335Z,16.30
2019-03-30T18:08:54.935Z,16.10
2019-03-30T18:11:25.408Z,16.00
2019-03-30T18:13:55.975Z,15.90
2019-03-30T18:16:26.513Z,15.70
2019-03-30T18:18:57.806Z,15.80
2019-03-30T18:21:28.303Z,15.70
2019-03-30T18:23:58.752Z,15.60
2019-03-30T18:26:29.303Z,14.90
2019-03-30T18:28:59.875Z,14.70
2019-03-30T18:31:30.348Z,14.80
2019-03-30T18:34:00.830Z,14.80
2019-03-30T18:36:31.714Z,14.70
2019-03-30T18:39:09.280Z,14.60
2019-03-30T18:41:34.302Z,14.60
2019-03-30T18:44:04.876Z,14.40
2019-03-30T18:46:35.335Z,14.20
2019-03-30T18:49:05.807Z,14.30
2019-03-30T18:51:36.250Z,13.90
2019-03-30T18:54:06.835Z,13.60
2019-03-30T18:56:37.314Z,13.60
2019-03-30T18:59:07.864Z,13.70
2019-03-30T19:01:38.335Z,13.50
2019-03-30T19:04:08.900Z,13.60
2019-03-30T19:06:39.442Z,13.40
2019-03-30T19:09:09.998Z,13.40
2019-03-30T19:11:40.443Z,13.40
2019-03-30T19:14:10.942Z,13.60
2019-03-30T19:16:41.432Z,13.70
2019-03-30T19:19:12.977Z,13.70
2019-03-30T19:21:43.438Z,13.60
2019-03-30T19:24:14.077Z,13.50
2019-03-30T19:26:44.607Z,13.50
2019-03-30T19:29:15.090Z,13.50
2019-03-30T19:31:45.625Z,13.40
2019-03-30T19:34:16.164Z,13.30
2019-03-30T19:36:46.616Z,13.20
2019-03-30T19:39:17.093Z,13.20
2019-03-30T19:41:47.544Z,13.10
2019-03-30T19:44:18.110Z,13.20
2019-03-30T19:46:48.602Z,13.20
2019-03-30T19:49:19.069Z,13.00
2019-03-30T19:51:49.562Z,12.90
2019-03-30T19:54:20.058Z,13.00
2019-03-30T19:56:50.526Z,12.90
2019-03-30T19:59:21.022Z,12.80
2019-03-30T20:01:51.585Z,12.50
2019-03-30T20:04:22.070Z,12.40
2019-03-30T20:06:52.533Z,12.50
2019-03-30T20:09:23.129Z,12.40
2019-03-30T20:11:53.623Z,12.50
2019-03-30T20:14:24.255Z,12.50
2019-03-30T20:16:54.790Z,12.40
2019-03-30T20:19:25.469Z,12.30
2019-03-30T20:21:57.413Z,12.00
2019-03-30T20:24:28.231Z,12.20
2019-03-30T20:26:59.103Z,12.20
2019-03-30T20:29:30.296Z,12.20
2019-03-30T20:32:00.988Z,11.70
2019-03-30T20:34:31.710Z,11.60
2019-03-30T20:37:02.370Z,11.50
2019-03-30T20:39:33.536Z,11.60
2019-03-30T20:42:04.091Z,11.70
2019-03-30T20:44:36.806Z,11.50
2019-03-30T20:47:09.383Z,11.50
2019-03-30T20:49:40.581Z,11.70
2019-03-30T20:52:11.476Z,11.60
2019-03-30T20:54:42.259Z,11.50
2019-03-30T20:57:12.832Z,11.00
2019-03-30T20:59:43.432Z,10.90
2019-03-30T21:02:13.906Z,10.70
2019-03-30T21:04:44.612Z,10.70
2019-03-30T21:07:15.135Z,11.00
2019-03-30T21:09:46.077Z,10.80
2019-03-30T21:12:16.631Z,10.90
2019-03-30T21:14:47.292Z,10.80
2019-03-30T21:17:17.816Z,11.00
2019-03-30T21:19:50.405Z,10.50
2019-03-30T21:22:20.955Z,10.40
2019-03-30T21:24:52.538Z,10.20
2019-03-30T21:27:23.091Z,10.10
2019-03-30T21:29:55.111Z,10.10
2019-03-30T21:32:25.928Z,10.30
2019-03-30T21:34:56.775Z,10.20
2019-03-30T21:37:27.575Z,9.80
2019-03-30T21:39:58.309Z,9.80
2019-03-30T21:42:28.841Z,9.80
2019-03-30T21:44:59.335Z,10.20
2019-03-30T21:47:29.953Z,10.30
2019-03-30T21:50:00.725Z,10.20
2019-03-30T21:52:31.255Z,10.30
2019-03-30T21:55:01.786Z,10.40
2019-03-30T21:57:32.471Z,10.30
2019-03-30T22:00:09.664Z,10.30
2019-03-30T22:02:35.163Z,10.20
2019-03-30T22:05:06.218Z,10.10
2019-03-30T22:07:36.928Z,9.90
2019-03-30T22:10:08.566Z,9.70
2019-03-30T22:12:40.163Z,9.50
2019-03-30T22:15:11.946Z,9.60
2019-03-30T22:17:42.778Z,9.70
2019-03-30T22:20:13.587Z,9.00
2019-03-30T22:22:44.240Z,8.70
2019-03-30T22:25:14.729Z,8.50
2019-03-30T22:27:45.534Z,8.70
2019-03-30T22:30:24.732Z,8.70
2019-03-30T22:32:48.237Z,8.60
2019-03-30T22:35:18.738Z,8.40
2019-03-30T22:37:49.362Z,8.90
2019-03-30T22:40:19.932Z,8.70
2019-03-30T22:42:50.554Z,8.60
2019-03-30T22:45:21.115Z,8.60
2019-03-30T22:47:51.722Z,8.60
2019-03-30T22:50:22.375Z,8.90
2019-03-30T22:52:53.020Z,9.10
2019-03-30T22:55:23.601Z,9.20
2019-03-30T22:57:54.204Z,9.20
2019-03-30T23:00:42.601Z,9.40
2019-03-30T23:03:13.272Z,9.50
2019-03-30T23:05:43.820Z,9.10
2019-03-30T23:08:14.426Z,9.00
2019-03-30T23:10:45.156Z,8.90
2019-03-30T23:13:15.687Z,8.80
2019-03-30T23:15:46.146Z,8.90
2019-03-30T23:18:16.631Z,9.00
2019-03-30T23:20:47.234Z,9.00
2019-03-30T23:23:17.996Z,9.00
2019-03-30T23:25:48.552Z,8.90
2019-03-30T23:28:19.219Z,9.00
2019-03-30T23:30:54.474Z,9.20
2019-03-30T23:33:21.785Z,9.10
2019-03-30T23:35:52.262Z,9.00
2019-03-30T23:38:22.827Z,8.90
2019-03-30T23:40:53.379Z,8.50
2019-03-30T23:43:23.911Z,7.90
2019-03-30T23:45:54.398Z,7.90
2019-03-30T23:48:24.948Z,8.00
2019-03-30T23:50:55.550Z,8.30
2019-03-30T23:53:26.058Z,8.50
2019-03-30T23:55:56.649Z,8.50
2019-03-30T23:58:27.362Z,8.70
